Terminal Aerodrome Forecast
Issued by NWS Charleston, SC

Home | Current Version | Previous Version | Text Only | Print | Product List | Glossary On
Versions: 1 2 3 4 5 6 7 8 9 10 11 12 13 14 15 16 17 18 19 20
000
FTUS42 KCHS 281737
TAFSAV
TAF
KSAV 281737Z 2818/2918 10008KT P6SM SCT040
     FM290800 VRB03KT 4SM BR FEW004
     FM291300 04005KT P6SM FEW020=

USA.gov is the U.S. government's official web portal to all federal, state and local government web resources and services.